Time;durP1;ratioP1;P1;durP2;ratioP2;P2;SDS_P1;SDS_P2;PMS_P1;PMS_P2;Temp;Humidity;BMP_temperature;BMP_pressure;BME280_temperature;BME280_humidity;BME280_pressure;Samples;Min_cycle;Max_cycle;Signal;HPM_P1;HPM_P2
2022/12/26 00:02:15;;;;;;;2.28;1.90;;;7.80;99.90;;;;;;4988597;28;20045;-77
2022/12/26 00:04:40;;;;;;;2.35;2.08;;;7.90;99.90;;;;;;4984703;28;20026;-76
2022/12/26 00:07:06;;;;;;;5.97;1.92;;;7.90;99.90;;;;;;5002908;28;20491;-76
2022/12/26 00:09:32;;;;;;;2.95;1.88;;;8.00;99.90;;;;;;4978564;28;20089;-76
2022/12/26 00:11:58;;;;;;;3.47;2.40;;;8.10;99.90;;;;;;4989530;28;20421;-77
2022/12/26 00:14:24;;;;;;;2.83;2.40;;;8.10;99.90;;;;;;4984136;28;20414;-77
2022/12/26 00:16:51;;;;;;;2.65;2.00;;;8.10;99.90;;;;;;4984590;28;20055;-76
2022/12/26 00:19:16;;;;;;;2.97;1.75;;;8.20;99.90;;;;;;4985887;28;20039;-76
2022/12/26 00:21:42;;;;;;;2.50;2.00;;;8.20;99.90;;;;;;4986917;28;20099;-76
2022/12/26 00:24:10;;;;;;;2.40;2.10;;;8.20;99.90;;;;;;4981857;28;20026;-77
2022/12/26 00:26:37;;;;;;;2.65;1.92;;;8.20;99.90;;;;;;4992448;28;20038;-76
2022/12/26 00:29:03;;;;;;;3.25;2.03;;;8.20;99.90;;;;;;4983230;28;20030;-77
2022/12/26 00:31:31;;;;;;;3.40;2.38;;;8.30;99.90;;;;;;4985167;28;20223;-76
2022/12/26 00:33:58;;;;;;;2.13;1.70;;;8.30;99.90;;;;;;4982939;28;20027;-77
2022/12/26 00:36:30;;;;;;;3.50;2.08;;;8.30;99.90;;;;;;4984615;28;20018;-77
2022/12/26 00:38:57;;;;;;;3.42;1.80;;;8.30;99.90;;;;;;4983468;28;20042;-76
2022/12/26 00:41:23;;;;;;;3.70;2.00;;;8.30;99.90;;;;;;4987872;28;20081;-76
2022/12/26 00:43:49;;;;;;;1.63;1.52;;;8.30;99.90;;;;;;4987563;28;20118;-76
2022/12/26 00:46:16;;;;;;;4.00;1.90;;;8.30;99.90;;;;;;4989644;28;20030;-76
2022/12/26 00:48:43;;;;;;;2.65;1.90;;;8.30;99.90;;;;;;4979800;28;20035;-77
2022/12/26 00:51:09;;;;;;;2.35;1.75;;;8.30;99.90;;;;;;4999848;28;20081;-77
2022/12/26 00:53:35;;;;;;;4.78;2.17;;;8.30;99.90;;;;;;5014248;28;20077;-76
2022/12/26 00:56:01;;;;;;;2.70;1.80;;;8.40;99.90;;;;;;4989275;28;20018;-76
2022/12/26 00:58:26;;;;;;;3.03;1.95;;;8.40;99.90;;;;;;4985765;28;20454;-76
2022/12/26 01:00:53;;;;;;;2.10;1.50;;;8.40;99.90;;;;;;4986494;28;20041;-75
2022/12/26 01:03:19;;;;;;;1.83;1.58;;;8.40;99.90;;;;;;4985541;28;20044;-76
2022/12/26 01:05:48;;;;;;;2.42;1.98;;;8.50;99.90;;;;;;5016369;28;20125;-76
2022/12/26 01:08:15;;;;;;;3.45;2.20;;;8.50;99.90;;;;;;4981333;28;20046;-76
2022/12/26 01:10:42;;;;;;;2.67;2.05;;;8.50;99.90;;;;;;4997204;28;20023;-76
2022/12/26 01:13:08;;;;;;;2.15;1.75;;;8.50;99.90;;;;;;4992572;28;20023;-77
2022/12/26 01:15:34;;;;;;;2.85;1.75;;;8.50;99.90;;;;;;5004379;28;20026;-77
2022/12/26 01:18:01;;;;;;;2.20;1.60;;;8.50;99.90;;;;;;4990109;28;20050;-76
2022/12/26 01:20:27;;;;;;;2.40;1.60;;;8.50;99.90;;;;;;4981738;28;20038;-77
2022/12/26 01:22:54;;;;;;;3.30;1.88;;;8.50;99.90;;;;;;4983434;28;20039;-76
2022/12/26 01:25:21;;;;;;;2.00;1.80;;;8.50;99.90;;;;;;4999382;28;20046;-76
2022/12/26 01:27:47;;;;;;;4.50;1.95;;;8.60;99.90;;;;;;4983439;28;20030;-76
2022/12/26 01:30:14;;;;;;;3.38;1.85;;;8.50;99.90;;;;;;4987145;28;20042;-76
2022/12/26 01:32:40;;;;;;;3.03;1.90;;;8.50;99.90;;;;;;4984852;28;20030;-77
2022/12/26 01:35:06;;;;;;;3.65;1.67;;;8.50;99.90;;;;;;4982785;28;20043;-76
2022/12/26 01:37:32;;;;;;;1.75;1.63;;;8.50;99.90;;;;;;4987895;28;20042;-76
2022/12/26 01:39:57;;;;;;;3.03;2.05;;;8.40;99.90;;;;;;4988433;28;20044;-76
2022/12/26 01:42:25;;;;;;;3.58;1.90;;;8.40;99.90;;;;;;4983742;28;20033;-76
2022/12/26 01:45:03;;;;;;;4.80;2.13;;;8.40;99.90;;;;;;4988006;28;20038;-76
2022/12/26 01:48:02;;;;;;;2.10;1.60;;;8.40;99.90;;;;;;4981950;28;20469;-76
2022/12/26 01:50:50;;;;;;;2.30;1.67;;;8.40;99.90;;;;;;4969507;28;20046;-77
2022/12/26 01:53:20;;;;;;;3.45;1.83;;;8.50;99.90;;;;;;4985112;28;20027;-77
2022/12/26 01:55:53;;;;;;;2.70;1.80;;;8.50;99.90;;;;;;4982093;28;20030;-77
2022/12/26 01:58:28;;;;;;;2.42;1.60;;;8.40;99.90;;;;;;4978908;28;20045;-76
2022/12/26 02:00:55;;;;;;;2.50;1.98;;;8.40;99.90;;;;;;4982372;28;20366;-75
2022/12/26 02:06:08;;;;;;;3.25;2.10;;;8.40;99.90;;;;;;4988849;28;20525;-76
2022/12/26 02:08:36;;;;;;;2.65;1.75;;;8.50;99.90;;;;;;4976706;28;20500;-76
2022/12/26 02:11:19;;;;;;;2.72;1.88;;;8.50;99.90;;;;;;4987699;28;20177;-76
2022/12/26 02:14:06;;;;;;;1.85;1.58;;;8.50;99.90;;;;;;4982536;28;20069;-76
2022/12/26 02:16:33;;;;;;;2.72;1.88;;;8.50;99.90;;;;;;4984624;28;20076;-76
2022/12/26 02:18:59;;;;;;;1.73;1.60;;;8.50;99.90;;;;;;4979951;28;20037;-76
2022/12/26 02:21:31;;;;;;;2.45;1.92;;;8.50;99.90;;;;;;4982279;28;20035;-76
2022/12/26 02:24:19;;;;;;;3.22;1.58;;;8.50;99.90;;;;;;4999340;28;20026;-76
2022/12/26 02:26:51;;;;;;;2.72;1.70;;;8.50;99.90;;;;;;4979399;28;20045;-75
2022/12/26 02:29:39;;;;;;;1.92;1.70;;;8.60;99.90;;;;;;4979794;28;20038;-76
2022/12/26 02:32:35;;;;;;;3.03;1.92;;;8.60;99.90;;;;;;4982947;28;20344;-76
2022/12/26 02:35:13;;;;;;;2.67;1.77;;;8.60;99.90;;;;;;4985686;28;20073;-76
2022/12/26 02:38:27;;;;;;;1.92;1.48;;;8.60;99.90;;;;;;4986259;28;20073;-77
2022/12/26 02:41:21;;;;;;;2.75;1.95;;;8.50;99.90;;;;;;4980687;28;20050;-76
2022/12/26 02:43:59;;;;;;;1.80;1.70;;;8.60;99.90;;;;;;4984520;28;20048;-76
2022/12/26 03:18:28;;;;;;;4.55;1.88;;;8.80;99.90;;;;;;4989940;28;20096;-76
2022/12/26 03:20:55;;;;;;;4.28;1.80;;;8.80;99.90;;;;;;4992108;28;20338;-75
2022/12/26 03:23:21;;;;;;;2.90;1.83;;;8.80;99.90;;;;;;4990800;28;20058;-75
2022/12/26 03:28:38;;;;;;;2.67;1.55;;;8.90;99.90;;;;;;4982241;28;20517;-76
2022/12/26 03:31:08;;;;;;;3.13;1.92;;;8.90;99.90;;;;;;4985270;28;20031;-75
2022/12/26 03:36:48;;;;;;;3.50;1.92;;;8.90;99.90;;;;;;5003964;28;20033;-76
2022/12/26 04:44:13;;;;;;;2.25;1.77;;;8.70;99.90;;;;;;4985835;28;20558;-77
2022/12/26 04:46:42;;;;;;;2.95;2.03;;;8.70;99.90;;;;;;4981992;28;20356;-76
2022/12/26 04:52:01;;;;;;;3.30;1.80;;;8.80;99.90;;;;;;4987664;28;20491;-76
2022/12/26 04:54:27;;;;;;;2.50;1.98;;;8.80;99.90;;;;;;4983242;28;20026;-77
2022/12/26 04:56:54;;;;;;;2.55;1.80;;;8.80;99.90;;;;;;5021711;28;20398;-76
2022/12/26 04:59:21;;;;;;;3.72;2.17;;;8.80;99.90;;;;;;4983502;28;20034;-77
2022/12/26 05:10:09;;;;;;;5.32;2.00;;;8.80;99.90;;;;;;4984079;28;20030;-77
2022/12/26 05:12:35;;;;;;;3.35;2.20;;;8.80;99.90;;;;;;4996992;28;20415;-76
2022/12/26 05:15:01;;;;;;;2.35;1.80;;;8.80;99.90;;;;;;4986219;28;20038;-77
2022/12/26 05:28:43;;;;;;;2.97;1.70;;;8.80;99.90;;;;;;5010643;28;20042;-76
2022/12/26 05:31:11;;;;;;;4.00;2.15;;;8.90;99.90;;;;;;4985702;28;20049;-77
2022/12/26 05:36:26;;;;;;;2.58;1.85;;;8.90;99.90;;;;;;4987352;28;20031;-77
2022/12/26 05:38:54;;;;;;;2.25;1.75;;;8.90;99.90;;;;;;4986245;28;20053;-77
2022/12/26 05:41:21;;;;;;;1.80;1.70;;;8.90;99.90;;;;;;4980855;28;20062;-75
2022/12/26 05:43:47;;;;;;;3.33;2.15;;;8.90;99.90;;;;;;4994863;28;20047;-77
2022/12/26 05:46:13;;;;;;;4.25;1.60;;;8.90;99.90;;;;;;4986881;28;20049;-77
2022/12/26 05:48:39;;;;;;;3.67;1.83;;;8.90;99.90;;;;;;4982675;28;20034;-76
2022/12/26 05:51:05;;;;;;;2.42;1.60;;;8.90;99.90;;;;;;4980268;28;20031;-76
2022/12/26 05:53:32;;;;;;;5.53;2.45;;;8.90;99.90;;;;;;4971839;28;20034;-76
2022/12/26 05:56:10;;;;;;;2.20;1.80;;;8.90;99.90;;;;;;4986637;28;20027;-76
2022/12/26 05:58:37;;;;;;;2.85;2.00;;;8.90;99.90;;;;;;4986500;28;20106;-76
2022/12/26 06:01:12;;;;;;;2.65;1.63;;;8.90;99.90;;;;;;4988202;28;20400;-76
2022/12/26 06:03:42;;;;;;;2.10;1.90;;;8.90;99.90;;;;;;4984051;28;20421;-77
2022/12/26 06:06:09;;;;;;;3.72;1.63;;;8.90;99.90;;;;;;4986623;28;20114;-77
2022/12/26 06:08:35;;;;;;;2.33;1.75;;;8.90;99.90;;;;;;4984119;28;20041;-77
2022/12/26 06:11:06;;;;;;;2.55;1.67;;;8.90;99.90;;;;;;4990767;28;20038;-77
2022/12/26 06:13:33;;;;;;;1.65;1.55;;;8.90;99.90;;;;;;4986962;28;20396;-76
2022/12/26 06:16:02;;;;;;;3.20;1.80;;;8.80;99.90;;;;;;4991886;28;20120;-76
2022/12/26 06:18:28;;;;;;;3.45;1.80;;;8.80;99.90;;;;;;4988593;28;20027;-77
2022/12/26 06:20:54;;;;;;;2.97;1.83;;;8.80;99.90;;;;;;4986145;28;20151;-77
2022/12/26 06:23:20;;;;;;;1.90;1.60;;;8.80;99.90;;;;;;4987112;28;20035;-77
2022/12/26 06:25:56;;;;;;;2.83;1.77;;;8.80;99.90;;;;;;4991943;28;20084;-77
2022/12/26 06:28:23;;;;;;;2.47;1.70;;;8.80;99.90;;;;;;4986153;28;20032;-77
2022/12/26 06:30:51;;;;;;;3.13;1.73;;;8.80;99.90;;;;;;4989161;28;20046;-77
2022/12/26 06:33:17;;;;;;;4.15;1.83;;;8.80;99.90;;;;;;4984031;28;20507;-77
2022/12/26 06:35:44;;;;;;;2.53;1.70;;;8.80;99.90;;;;;;4986906;28;20022;-77
2022/12/26 06:38:10;;;;;;;2.88;1.70;;;8.90;99.90;;;;;;4990864;28;20033;-76
2022/12/26 06:40:40;;;;;;;2.22;1.77;;;8.90;99.90;;;;;;5003086;28;20062;-77
2022/12/26 06:43:07;;;;;;;2.35;1.60;;;8.90;99.90;;;;;;4985749;28;20028;-76
2022/12/26 06:45:34;;;;;;;3.03;1.70;;;9.00;99.90;;;;;;4985736;28;20034;-77
2022/12/26 06:48:00;;;;;;;2.88;1.80;;;9.00;99.90;;;;;;4984650;28;20126;-77
2022/12/26 06:50:27;;;;;;;2.97;1.75;;;9.00;99.90;;;;;;4984342;28;20110;-76
2022/12/26 06:52:52;;;;;;;2.28;1.58;;;9.00;99.90;;;;;;4988676;28;20030;-77
2022/12/26 06:55:37;;;;;;;4.00;1.80;;;9.00;99.90;;;;;;4987718;28;20168;-76
2022/12/26 06:58:02;;;;;;;1.63;1.52;;;9.00;99.90;;;;;;4990314;28;20477;-76
2022/12/26 07:00:28;;;;;;;4.45;1.60;;;9.00;99.90;;;;;;4986941;28;20042;-77
2022/12/26 07:02:55;;;;;;;2.40;1.90;;;9.00;99.90;;;;;;4990952;28;20038;-77
2022/12/26 07:05:21;;;;;;;2.00;1.80;;;9.00;99.90;;;;;;4989394;28;20026;-77
2022/12/26 07:07:51;;;;;;;2.35;1.60;;;9.00;99.90;;;;;;4988244;28;20147;-77
2022/12/26 07:10:19;;;;;;;1.88;1.70;;;9.00;99.90;;;;;;4989948;28;20092;-77
2022/12/26 07:12:45;;;;;;;2.65;1.73;;;9.00;99.90;;;;;;4991595;28;20014;-77
2022/12/26 07:15:11;;;;;;;2.45;1.80;;;9.10;99.90;;;;;;4989735;28;20490;-77
2022/12/26 07:17:37;;;;;;;2.53;2.33;;;9.10;99.90;;;;;;5002217;28;20038;-77
2022/12/26 07:20:04;;;;;;;1.65;1.45;;;9.10;99.90;;;;;;4978653;28;20034;-77
2022/12/26 07:22:30;;;;;;;3.70;1.73;;;9.10;99.90;;;;;;4972818;28;20034;-76
2022/12/26 07:24:57;;;;;;;2.50;1.83;;;9.10;99.90;;;;;;4990013;28;20038;-76
2022/12/26 07:27:23;;;;;;;1.73;1.40;;;9.20;99.90;;;;;;4988650;28;20048;-76
2022/12/26 07:29:49;;;;;;;1.67;1.52;;;9.20;99.90;;;;;;4986818;28;20027;-77
2022/12/26 07:32:15;;;;;;;4.32;1.60;;;9.20;99.90;;;;;;4986844;28;20518;-76
2022/12/26 07:34:41;;;;;;;1.77;1.65;;;9.20;99.90;;;;;;4988513;28;20336;-76
2022/12/26 07:37:07;;;;;;;1.90;1.58;;;9.30;99.90;;;;;;4981137;28;20034;-76
2022/12/26 07:39:34;;;;;;;1.50;1.40;;;9.30;99.90;;;;;;4988578;28;20443;-76
2022/12/26 07:42:00;;;;;;;4.03;1.85;;;9.30;99.90;;;;;;4985803;28;20022;-76
2022/12/26 07:44:30;;;;;;;2.67;1.80;;;9.30;99.90;;;;;;4986207;28;20498;-77
2022/12/26 07:46:57;;;;;;;4.03;1.80;;;9.30;99.90;;;;;;4987296;28;20065;-77
2022/12/26 07:49:24;;;;;;;3.35;1.58;;;9.30;99.90;;;;;;4988518;28;20502;-77
2022/12/26 07:51:50;;;;;;;2.33;1.95;;;9.30;99.90;;;;;;4992533;28;20125;-76
2022/12/26 07:54:16;;;;;;;1.50;1.40;;;9.30;99.90;;;;;;4985718;28;20042;-76
2022/12/26 07:56:42;;;;;;;2.80;1.67;;;9.30;99.90;;;;;;4986195;28;20106;-76
2022/12/26 07:59:14;;;;;;;5.88;2.08;;;9.30;99.90;;;;;;4988458;28;20034;-75
2022/12/26 08:01:40;;;;;;;2.88;1.70;;;9.30;99.90;;;;;;4999078;28;20554;-76
2022/12/26 08:04:07;;;;;;;3.92;1.80;;;9.30;99.90;;;;;;4982995;28;20085;-77
2022/12/26 08:06:33;;;;;;;3.75;1.88;;;9.30;99.90;;;;;;4988175;28;20450;-76
2022/12/26 08:08:58;;;;;;;2.15;1.80;;;9.20;99.90;;;;;;5003006;28;20047;-76
2022/12/26 08:11:25;;;;;;;1.80;1.50;;;9.20;99.90;;;;;;4985633;28;20489;-76
2022/12/26 08:13:51;;;;;;;2.88;1.70;;;9.20;99.90;;;;;;4981676;28;20034;-76
2022/12/26 08:16:18;;;;;;;2.92;1.70;;;9.30;99.90;;;;;;4984196;28;20030;-76
2022/12/26 08:18:44;;;;;;;4.28;1.70;;;9.30;99.90;;;;;;4989410;28;20729;-76
2022/12/26 08:21:11;;;;;;;2.58;1.75;;;9.30;99.90;;;;;;4991213;28;20034;-76
2022/12/26 08:23:37;;;;;;;2.70;1.77;;;9.30;99.90;;;;;;4988024;28;20030;-76
2022/12/26 08:26:08;;;;;;;1.50;1.40;;;9.30;99.90;;;;;;4989263;28;20042;-77
2022/12/26 08:28:34;;;;;;;2.42;1.67;;;9.30;99.90;;;;;;4987730;28;20034;-76
2022/12/26 08:31:08;;;;;;;2.65;1.55;;;9.40;99.90;;;;;;4987147;28;20050;-76
2022/12/26 08:33:35;;;;;;;2.42;1.85;;;9.30;99.90;;;;;;4989773;28;20113;-77
2022/12/26 08:36:05;;;;;;;1.95;1.40;;;9.40;99.90;;;;;;4984606;28;20030;-77
2022/12/26 08:38:31;;;;;;;3.47;1.80;;;9.40;99.90;;;;;;4987842;28;20026;-77
2022/12/26 08:40:58;;;;;;;4.22;1.75;;;9.40;99.90;;;;;;4990599;28;20326;-77
2022/12/26 08:43:24;;;;;;;2.92;2.05;;;9.40;99.90;;;;;;4985525;28;20030;-76
2022/12/26 08:46:03;;;;;;;3.28;1.90;;;9.40;99.90;;;;;;4987322;28;20168;-77
2022/12/26 08:48:29;;;;;;;1.63;1.40;;;9.40;99.90;;;;;;5013813;28;20034;-77
2022/12/26 08:51:07;;;;;;;3.97;2.05;;;9.50;99.90;;;;;;4985205;28;20613;-78
2022/12/26 08:53:35;;;;;;;3.20;1.92;;;9.50;99.90;;;;;;4987160;28;20646;-77
2022/12/26 08:56:03;;;;;;;2.10;1.58;;;9.40;99.90;;;;;;4992475;28;20101;-77
2022/12/26 08:58:29;;;;;;;3.67;1.90;;;9.30;99.90;;;;;;4988910;28;20030;-78
2022/12/26 09:01:05;;;;;;;3.13;1.98;;;9.30;99.90;;;;;;4985826;28;20491;-77
2022/12/26 09:03:31;;;;;;;2.28;1.70;;;9.30;99.90;;;;;;4989841;28;20023;-77
2022/12/26 09:06:00;;;;;;;2.70;2.22;;;9.20;99.90;;;;;;4992821;28;20598;-77
2022/12/26 09:08:28;;;;;;;3.45;2.05;;;9.30;99.90;;;;;;4990860;28;20026;-78
2022/12/26 09:10:55;;;;;;;3.65;2.13;;;9.30;99.90;;;;;;5025415;28;20692;-78
2022/12/26 09:13:22;;;;;;;2.10;1.90;;;9.30;99.90;;;;;;4987919;28;20436;-78
2022/12/26 09:15:47;;;;;;;2.45;2.10;;;9.30;99.90;;;;;;4989759;28;20035;-77
2022/12/26 09:18:13;;;;;;;4.32;2.38;;;9.30;99.90;;;;;;5012265;28;20092;-76
2022/12/26 09:20:39;;;;;;;4.18;2.22;;;9.30;99.90;;;;;;4990423;28;20050;-76
2022/12/26 09:23:09;;;;;;;2.13;1.92;;;9.30;99.90;;;;;;4989206;28;20101;-78
2022/12/26 09:25:36;;;;;;;3.45;2.25;;;9.30;99.90;;;;;;4969798;28;20113;-78
2022/12/26 09:28:01;;;;;;;2.95;2.38;;;9.30;99.90;;;;;;4967227;28;20101;-78
2022/12/26 09:30:27;;;;;;;4.03;2.35;;;9.30;99.90;;;;;;4990545;28;21626;-77
2022/12/26 09:32:53;;;;;;;4.13;2.00;;;9.30;99.90;;;;;;4986075;28;20435;-78
2022/12/26 09:35:19;;;;;;;5.13;2.28;;;9.40;99.90;;;;;;4983220;28;20026;-78
2022/12/26 09:37:44;;;;;;;3.42;2.33;;;9.40;99.90;;;;;;4966262;28;20035;-78
2022/12/26 09:40:21;;;;;;;2.95;2.35;;;9.40;99.90;;;;;;4984366;28;20114;-77
2022/12/26 09:43:05;;;;;;;2.33;2.13;;;9.40;99.90;;;;;;4999082;28;20043;-77
2022/12/26 09:45:53;;;;;;;6.00;2.33;;;9.40;99.90;;;;;;4985871;28;20402;-78
2022/12/26 09:48:30;;;;;;;3.15;2.33;;;9.30;99.90;;;;;;4989853;28;20033;-78
2022/12/26 09:50:56;;;;;;;3.97;2.53;;;9.30;99.90;;;;;;4986766;28;20101;-77
2022/12/26 09:53:33;;;;;;;3.00;2.70;;;9.30;99.90;;;;;;4985244;28;20077;-78
2022/12/26 09:56:04;;;;;;;2.92;2.45;;;9.30;99.90;;;;;;5007062;28;20030;-77
2022/12/26 09:58:45;;;;;;;3.72;2.40;;;9.30;99.90;;;;;;4988052;28;20469;-78
2022/12/26 10:01:20;;;;;;;4.75;2.40;;;9.20;99.90;;;;;;5008885;28;20030;-78
2022/12/26 10:03:55;;;;;;;;;;;9.20;99.90;;;;;;4987993;28;20072;-77
2022/12/26 10:06:22;;;;;;;2.72;2.45;;;9.20;99.90;;;;;;4990530;28;20425;-77
2022/12/26 10:09:03;;;;;;;2.60;2.20;;;9.20;99.90;;;;;;4995865;28;20057;-78
2022/12/26 10:11:56;;;;;;;2.60;2.40;;;9.10;99.90;;;;;;4995631;28;20045;-77
2022/12/26 10:14:24;;;;;;;3.17;2.42;;;9.20;99.90;;;;;;4992085;28;20534;-78
2022/12/26 10:17:17;;;;;;;4.53;2.53;;;9.20;99.90;;;;;;4991982;28;20076;-78
2022/12/26 10:20:13;;;;;;;3.40;3.10;;;9.20;99.90;;;;;;4970138;28;20038;-77
2022/12/26 10:23:17;;;;;;;3.38;2.40;;;9.20;99.90;;;;;;4992966;28;20113;-78
2022/12/26 10:25:49;;;;;;;3.67;2.60;;;9.20;99.90;;;;;;5006163;28;20037;-77
2022/12/26 10:28:22;;;;;;;3.25;2.28;;;9.10;99.90;;;;;;5002267;28;20596;-77
2022/12/26 10:30:50;;;;;;;4.65;2.88;;;9.20;99.90;;;;;;4989679;28;20061;-78
2022/12/26 10:33:26;;;;;;;4.97;3.55;;;9.10;99.90;;;;;;4990801;28;20070;-77
2022/12/26 10:35:53;;;;;;;10.57;5.38;;;9.10;99.90;;;;;;4985217;28;20038;-77
2022/12/26 10:38:39;;;;;;;8.05;3.33;;;9.10;99.90;;;;;;4999693;28;20097;-77
2022/12/26 10:41:14;;;;;;;4.60;2.60;;;9.00;99.90;;;;;;4988069;28;20615;-77
2022/12/26 10:43:43;;;;;;;3.58;2.38;;;9.00;99.90;;;;;;4983707;28;20022;-77
2022/12/26 10:46:30;;;;;;;4.93;2.60;;;9.10;99.90;;;;;;4989139;28;20046;-77
2022/12/26 10:48:57;;;;;;;3.92;2.35;;;9.10;99.90;;;;;;4983867;28;20031;-78
2022/12/26 10:51:23;;;;;;;8.00;2.42;;;9.10;99.90;;;;;;5001395;28;20026;-77
2022/12/26 10:53:51;;;;;;;3.15;2.17;;;9.10;99.90;;;;;;4987112;28;20030;-77
2022/12/26 10:56:20;;;;;;;3.47;2.30;;;9.10;99.90;;;;;;4974458;28;20114;-78
2022/12/26 10:58:57;;;;;;;2.60;2.10;;;9.10;99.90;;;;;;4988548;28;20030;-78
2022/12/26 11:01:26;;;;;;;2.83;2.22;;;9.10;99.90;;;;;;5004800;28;20053;-76
2022/12/26 11:03:57;;;;;;;2.60;2.33;;;9.20;99.90;;;;;;4988961;28;20069;-76
2022/12/26 11:06:32;;;;;;;4.25;2.10;;;9.20;99.90;;;;;;4989860;28;20061;-76
2022/12/26 11:08:59;;;;;;;5.18;2.25;;;9.20;99.90;;;;;;4992840;28;20038;-77
2022/12/26 11:11:44;;;;;;;2.97;2.00;;;9.20;99.90;;;;;;4989576;28;20093;-76
2022/12/26 11:14:39;;;;;;;2.38;2.13;;;9.20;99.90;;;;;;4987505;28;20034;-77
2022/12/26 11:17:11;;;;;;;3.22;2.30;;;9.30;99.90;;;;;;4998237;28;20030;-76
2022/12/26 11:19:41;;;;;;;3.95;2.00;;;9.20;99.90;;;;;;4986785;28;20041;-76
2022/12/26 11:22:33;;;;;;;3.65;2.30;;;9.20;99.90;;;;;;4989075;28;20035;-77
2022/12/26 11:25:09;;;;;;;2.50;2.30;;;9.30;99.90;;;;;;4969506;28;20046;-77
2022/12/26 11:27:36;;;;;;;3.15;2.53;;;9.30;99.90;;;;;;4985419;28;20117;-78
2022/12/26 11:30:18;;;;;;;2.78;2.13;;;9.20;99.90;;;;;;4982927;28;20037;-78
2022/12/26 11:32:47;;;;;;;2.47;1.95;;;9.30;99.90;;;;;;4988039;28;20038;-76
2022/12/26 11:35:19;;;;;;;3.08;2.10;;;9.30;99.90;;;;;;4985934;28;20045;-78
2022/12/26 11:37:50;;;;;;;3.63;2.35;;;9.30;99.90;;;;;;4986573;28;20028;-78
2022/12/26 11:40:23;;;;;;;2.60;2.15;;;9.30;99.90;;;;;;5007111;28;20046;-77
2022/12/26 11:42:58;;;;;;;2.45;1.85;;;9.30;99.90;;;;;;4982313;28;20193;-78
2022/12/26 11:45:28;;;;;;;1.55;1.45;;;9.30;99.90;;;;;;4987373;28;20136;-77
2022/12/26 11:47:56;;;;;;;3.20;1.80;;;9.30;99.90;;;;;;4987500;28;20053;-78
2022/12/26 11:50:28;;;;;;;2.50;1.83;;;9.30;99.90;;;;;;4990837;28;20023;-79
2022/12/26 11:52:54;;;;;;;2.50;2.03;;;9.30;99.90;;;;;;4993232;28;20058;-78
2022/12/26 11:55:23;;;;;;;3.50;1.98;;;9.30;99.90;;;;;;5006806;28;20065;-77
2022/12/26 11:58:08;;;;;;;4.82;2.25;;;9.20;99.90;;;;;;4984743;28;20026;-77
2022/12/26 12:00:43;;;;;;;2.15;1.88;;;9.30;99.90;;;;;;4985244;28;20739;-77
2022/12/26 12:03:15;;;;;;;1.95;1.60;;;9.20;99.90;;;;;;4987125;28;20066;-77
2022/12/26 12:06:19;;;;;;;10.48;5.07;;;9.30;99.90;;;;;;4987699;28;20046;-77
2022/12/26 12:08:57;;;;;;;1.77;1.65;;;9.30;99.90;;;;;;4989311;28;20058;-77
2022/12/26 12:11:43;;;;;;;2.85;1.73;;;9.30;99.90;;;;;;4986658;28;20441;-77
2022/12/26 12:14:22;;;;;;;2.85;1.58;;;9.20;99.90;;;;;;4987795;28;20058;-78
2022/12/26 12:16:54;;;;;;;3.80;1.83;;;9.30;99.90;;;;;;4984111;28;20034;-77
2022/12/26 12:19:23;;;;;;;18.73;2.47;;;9.30;99.90;;;;;;5003432;28;20149;-77
2022/12/26 12:22:39;;;;;;;1.63;1.52;;;9.30;99.90;;;;;;4985899;28;20036;-78
2022/12/26 12:25:29;;;;;;;3.20;1.30;;;9.30;99.90;;;;;;4993400;28;20041;-79
2022/12/26 12:28:39;;;;;;;2.75;2.55;;;9.20;99.90;;;;;;4985811;28;20045;-77
2022/12/26 12:31:24;;;;;;;2.72;1.45;;;9.30;99.90;;;;;;4984904;28;20034;-77
2022/12/26 12:33:59;;;;;;;2.42;1.52;;;9.20;99.90;;;;;;4979688;28;20026;-79
2022/12/26 12:36:33;;;;;;;3.05;1.80;;;9.30;99.90;;;;;;5005354;28;20093;-78
2022/12/26 12:39:01;;;;;;;2.42;1.52;;;9.30;99.90;;;;;;5000341;28;20072;-78
2022/12/26 12:41:53;;;;;;;12.20;2.10;;;9.30;99.90;;;;;;4989104;28;20030;-78
2022/12/26 12:44:28;;;;;;;2.25;1.60;;;9.30;99.90;;;;;;4982516;28;20578;-78
2022/12/26 12:47:00;;;;;;;;;;;9.30;99.90;;;;;;4987378;28;20065;-77
2022/12/26 12:49:55;;;;;;;3.75;1.40;;;9.30;99.90;;;;;;4993854;28;19914;-78
2022/12/26 12:52:36;;;;;;;1.47;1.17;;;9.30;99.90;;;;;;4983129;28;20035;-79
2022/12/26 12:55:25;;;;;;;2.25;1.50;;;9.30;99.90;;;;;;4978339;28;20031;-77
2022/12/26 12:57:59;;;;;;;1.73;1.55;;;9.30;99.90;;;;;;4980711;28;20046;-78
2022/12/26 13:00:30;;;;;;;1.85;1.48;;;9.30;99.90;;;;;;4982916;28;20121;-77
2022/12/26 13:03:09;;;;;;;1.98;1.45;;;9.30;99.90;;;;;;4986074;28;20487;-78
2022/12/26 13:06:21;;;;;;;1.40;1.15;;;9.30;99.90;;;;;;4991260;28;20057;-78
2022/12/26 13:08:53;;;;;;;2.58;1.30;;;9.30;99.90;;;;;;4990047;28;20137;-79
2022/12/26 13:11:19;;;;;;;1.52;1.30;;;9.30;99.90;;;;;;5001461;28;20479;-77
2022/12/26 13:14:16;;;;;;;2.20;1.40;;;9.30;99.90;;;;;;4975293;28;20041;-77
2022/12/26 13:16:48;;;;;;;1.48;1.27;;;9.20;99.90;;;;;;4987922;28;20035;-77
2022/12/26 13:19:22;;;;;;;2.05;1.20;;;9.30;99.90;;;;;;4972242;28;20038;-78
2022/12/26 13:21:51;;;;;;;3.30;1.20;;;9.20;99.90;;;;;;4988600;28;20439;-78
2022/12/26 13:24:42;;;;;;;2.78;1.20;;;9.20;99.90;;;;;;4990634;28;20431;-79
2022/12/26 13:27:08;;;;;;;1.80;1.30;;;9.20;99.90;;;;;;5006252;28;20039;-77
2022/12/26 13:29:36;;;;;;;1.40;1.30;;;9.10;99.90;;;;;;4983469;28;20025;-77
2022/12/26 13:32:11;;;;;;;1.35;1.25;;;9.10;99.90;;;;;;4997333;28;20034;-76
2022/12/26 13:34:37;;;;;;;2.60;1.55;;;9.10;99.90;;;;;;4984975;28;20083;-79
2022/12/26 13:37:04;;;;;;;4.18;1.60;;;9.00;99.90;;;;;;5017703;28;20031;-77
2022/12/26 13:39:33;;;;;;;2.50;1.50;;;9.00;99.90;;;;;;4979796;28;20097;-77
2022/12/26 13:45:46;;;;;;;2.38;1.30;;;9.00;99.90;;;;;;4976796;28;20038;-77
2022/12/26 13:48:15;;;;;;;12.80;2.15;;;9.00;99.90;;;;;;4986999;28;20553;-78
2022/12/26 13:50:48;;;;;;;2.00;1.33;;;9.00;99.90;;;;;;4979236;28;20070;-79
2022/12/26 13:53:23;;;;;;;1.65;1.30;;;9.00;99.90;;;;;;4982137;28;20081;-77
2022/12/26 13:55:51;;;;;;;2.05;1.30;;;9.00;99.90;;;;;;5003427;28;20150;-78
2022/12/26 13:58:48;;;;;;;1.10;1.02;;;9.00;99.90;;;;;;4971776;28;20031;-78
2022/12/26 14:02:01;;;;;;;1.20;1.10;;;8.90;99.90;;;;;;4992830;28;20026;-79
2022/12/26 14:04:30;;;;;;;2.08;1.30;;;8.90;99.90;;;;;;4975642;28;20420;-78
2022/12/26 14:07:10;;;;;;;1.52;1.23;;;8.90;99.90;;;;;;4985864;28;20517;-77
2022/12/26 14:09:58;;;;;;;1.35;1.25;;;8.90;99.90;;;;;;4996316;28;20045;-78
2022/12/26 14:12:29;;;;;;;1.33;1.20;;;8.90;99.90;;;;;;4983813;28;20035;-77
2022/12/26 14:15:14;;;;;;;11.88;1.92;;;8.80;99.90;;;;;;4986777;28;20114;-77
2022/12/26 14:17:59;;;;;;;1.17;1.10;;;8.80;99.90;;;;;;4978680;28;20046;-77
2022/12/26 14:20:56;;;;;;;2.45;1.10;;;8.80;99.90;;;;;;4984594;28;20031;-77
2022/12/26 14:23:37;;;;;;;33.85;2.75;;;8.80;99.90;;;;;;4999198;28;20658;-78
2022/12/26 14:26:32;;;;;;;18.17;2.20;;;8.80;99.90;;;;;;5002341;28;20037;-77
2022/12/26 14:29:19;;;;;;;3.28;1.40;;;8.80;99.90;;;;;;4997286;28;20030;-78
2022/12/26 14:32:10;;;;;;;1.60;1.50;;;8.80;99.90;;;;;;4988160;28;20034;-77
2022/12/26 14:35:11;;;;;;;18.80;2.05;;;8.80;99.90;;;;;;4985486;28;20038;-79
2022/12/26 14:38:08;;;;;;;1.63;1.40;;;8.80;99.90;;;;;;4973028;28;20042;-77
2022/12/26 14:40:36;;;;;;;2.15;1.67;;;8.80;99.90;;;;;;4992975;28;20026;-78
2022/12/26 14:43:09;;;;;;;1.48;1.38;;;8.80;99.90;;;;;;4985088;28;20510;-77
2022/12/26 14:45:35;;;;;;;2.00;1.70;;;8.70;99.90;;;;;;4991601;28;20022;-77
2022/12/26 14:48:22;;;;;;;2.50;1.85;;;8.70;99.90;;;;;;4997404;28;20519;-78
2022/12/26 14:51:15;;;;;;;2.30;1.80;;;8.70;99.90;;;;;;4978417;28;20038;-78
2022/12/26 14:53:43;;;;;;;2.25;2.05;;;8.60;99.90;;;;;;4986022;28;20145;-77
2022/12/26 14:56:15;;;;;;;1.88;1.58;;;8.60;99.90;;;;;;4986581;28;20062;-77
2022/12/26 14:58:46;;;;;;;6.40;1.83;;;8.60;99.90;;;;;;4990771;28;20046;-76
2022/12/26 15:01:14;;;;;;;33.63;3.30;;;8.60;99.90;;;;;;4985586;28;20043;-78
2022/12/26 15:04:07;;;;;;;50.20;4.05;;;8.60;99.90;;;;;;4981245;28;20037;-77
2022/12/26 15:06:51;;;;;;;1.58;1.48;;;8.60;99.90;;;;;;4990477;28;20045;-77
2022/12/26 15:09:39;;;;;;;2.70;1.70;;;8.50;99.90;;;;;;4988502;28;20044;-77
2022/12/26 15:12:33;;;;;;;2.95;1.83;;;8.50;99.90;;;;;;4988633;28;20035;-77
2022/12/26 15:15:36;;;;;;;3.13;1.65;;;8.60;99.90;;;;;;4985534;28;20022;-77
2022/12/26 15:18:07;;;;;;;2.22;1.60;;;8.50;99.90;;;;;;4997084;28;20027;-77
2022/12/26 15:21:02;;;;;;;2.83;1.70;;;8.50;99.90;;;;;;4983459;28;20027;-77
2022/12/26 15:24:02;;;;;;;5.18;1.85;;;8.50;99.90;;;;;;4982370;28;20558;-77
2022/12/26 15:26:37;;;;;;;38.85;3.55;;;8.50;99.90;;;;;;4990658;28;20041;-77
2022/12/26 15:29:18;;;;;;;2.92;2.10;;;8.50;99.90;;;;;;4986301;28;20026;-78
2022/12/26 15:32:08;;;;;;;1.90;1.75;;;8.50;99.90;;;;;;4989230;28;20161;-77
2022/12/26 15:34:55;;;;;;;3.17;1.60;;;8.50;99.90;;;;;;4982638;28;20035;-78
2022/12/26 15:37:37;;;;;;;2.45;1.75;;;8.50;99.90;;;;;;4987335;28;20073;-78
2022/12/26 15:40:10;;;;;;;1.67;1.58;;;8.50;99.90;;;;;;4988257;28;20479;-78
2022/12/26 15:43:00;;;;;;;17.10;2.80;;;8.50;99.90;;;;;;4998561;28;20499;-78
2022/12/26 15:45:51;;;;;;;22.60;2.90;;;8.50;99.90;;;;;;4992400;28;20057;-78